Hlavní strana
METAR-TAF:

METAR-TAF

Letiště :

Mezinárodní letiště Dubaj

Dubaj, Spojené arabské emiráty

zeměpisná šířka: 25-15-10N, zeměpisná délka: 055-21-52E, výška: 8 m

Aktuální stav počasí

Zpráva byla vytvořena před 32 minutami, v 05:00 UTC
vítr z různých směrů 5 kt
Teplota 28°C
Vlhkost vzduchu 45%
Tlak 1018 hPa
Viditelnost: 8000 m

METAR: OMDB 170500Z VRB05KT 8000 NSC 28/15 Q1018 NOSIG

Čas: 09:32 (05:32 UTC)

Předpověď počasí

Zpráva byla vytvořena před 6 hodinami a 32 minutami, v 23:00 UTC
Předpověď platná od 17 v 00 UTC do 18 v 06 UTC
Jihovýchodní vítr 5 kt
Viditelnost: 8000 m
Změna
od 17 v 07 UTC do 17 v 09 UTC
Severozápadní vítr 12 kt
Změna
od 17 v 16 UTC do 17 v 18 UTC
Jihojihozápadní vítr 6 kt
Pravděpodobnost 30%
od 18 v 00 UTC do 18 v 05 UTC
Viditelnost: 4000 m
zákal

TAF: OMDB 162300Z 1700/1806 14005KT 8000 NSC BECMG 1707/1709 32012KT BECMG 1716/1718 20006KT PROB30 1800/1805 4000 HZ

Stav a předpovědi počasí z více než 4 000 letišť (zprávy METAR a TAF).

Červené a žluté tečky na mapě představují dostupné meteorologické stanice.

Když kurzor umístíte na tečku, zobrazí se název stanice.

Pak kliknutím zobrazíte stav a předpověď počasí.

Chcete-li změnit mapu, kliknutím na zelené tlačítko se znaménkem +mapu přiblížíte, kliknutím na zelené tlačítko se znaménkem – mapu oddálíte a kliknutím na zelené šipky přejdete na sousední mapy.


METAR-TAF: